sensor_id;sensor_type;location;lat;lon;timestamp;pressure;altitude;pressure_sealevel;temperature;humidity
72110;BME280;59983;52.010;5.420;2022-12-19T00:01:31;101842.44;;;1.82;100.00
72110;BME280;59983;52.010;5.420;2022-12-19T00:04:00;101837.34;;;1.80;100.00
72110;BME280;59983;52.010;5.420;2022-12-19T00:06:32;101834.13;;;1.83;100.00
72110;BME280;59983;52.010;5.420;2022-12-19T00:08:59;101827.44;;;1.81;100.00
72110;BME280;59983;52.010;5.420;2022-12-19T00:11:27;101822.38;;;1.84;100.00
72110;BME280;59983;52.010;5.420;2022-12-19T00:13:53;101806.31;;;1.84;100.00
72110;BME280;59983;52.010;5.420;2022-12-19T00:16:22;101806.59;;;1.83;100.00
72110;BME280;59983;52.010;5.420;2022-12-19T00:18:50;101805.25;;;1.80;100.00
72110;BME280;59983;52.010;5.420;2022-12-19T00:21:24;101803.66;;;1.79;100.00
72110;BME280;59983;52.010;5.420;2022-12-19T00:23:51;101814.88;;;1.81;100.00
72110;BME280;59983;52.010;5.420;2022-12-19T00:26:29;101827.44;;;1.81;100.00
72110;BME280;59983;52.010;5.420;2022-12-19T00:29:01;101815.13;;;1.75;100.00
72110;BME280;59983;52.010;5.420;2022-12-19T00:31:29;101819.44;;;1.81;100.00
72110;BME280;59983;52.010;5.420;2022-12-19T00:33:56;101809.53;;;1.81;100.00
72110;BME280;59983;52.010;5.420;2022-12-19T00:36:26;101799.09;;;1.85;100.00
72110;BME280;59983;52.010;5.420;2022-12-19T00:38:54;101805.53;;;1.84;100.00
72110;BME280;59983;52.010;5.420;2022-12-19T00:41:29;101795.09;;;1.82;100.00
72110;BME280;59983;52.010;5.420;2022-12-19T00:44:01;101791.88;;;1.85;100.00
72110;BME280;59983;52.010;5.420;2022-12-19T00:46:29;101789.22;;;1.90;100.00
72110;BME280;59983;52.010;5.420;2022-12-19T00:48:56;101783.09;;;1.90;100.00
72110;BME280;59983;52.010;5.420;2022-12-19T00:51:25;101767.56;;;1.92;100.00
72110;BME280;59983;52.010;5.420;2022-12-19T00:53:54;101759.84;;;1.95;100.00
72110;BME280;59983;52.010;5.420;2022-12-19T00:56:29;101766.78;;;1.96;100.00
72110;BME280;59983;52.010;5.420;2022-12-19T00:58:58;101768.91;;;1.99;100.00
72110;BME280;59983;52.010;5.420;2022-12-19T01:01:30;101757.94;;;2.01;100.00
72110;BME280;59983;52.010;5.420;2022-12-19T01:04:00;101760.13;;;2.04;100.00
72110;BME280;59983;52.010;5.420;2022-12-19T01:06:47;101770.28;;;2.07;100.00
72110;BME280;59983;52.010;5.420;2022-12-19T01:09:13;101767.06;;;2.05;100.00
72110;BME280;59983;52.010;5.420;2022-12-19T01:11:40;101750.22;;;2.05;100.00
72110;BME280;59983;52.010;5.420;2022-12-19T01:14:25;101762.28;;;2.12;100.00
72110;BME280;59983;52.010;5.420;2022-12-19T01:16:52;101743.53;;;2.12;100.00
72110;BME280;59983;52.010;5.420;2022-12-19T01:19:19;101741.91;;;2.11;100.00
72110;BME280;59983;52.010;5.420;2022-12-19T01:21:45;101739.53;;;2.15;100.00
72110;BME280;59983;52.010;5.420;2022-12-19T01:24:12;101744.34;;;2.18;100.00
72110;BME280;59983;52.010;5.420;2022-12-19T01:26:44;101751.03;;;2.15;100.00
72110;BME280;59983;52.010;5.420;2022-12-19T01:29:11;101756.66;;;2.14;100.00
72110;BME280;59983;52.010;5.420;2022-12-19T01:31:37;101739.53;;;2.15;100.00
72110;BME280;59983;52.010;5.420;2022-12-19T01:34:04;101742.19;;;2.15;100.00
72110;BME280;59983;52.010;5.420;2022-12-19T01:36:30;101724.25;;;2.20;100.00
72110;BME280;59983;52.010;5.420;2022-12-19T01:38:57;101726.16;;;2.25;100.00
72110;BME280;59983;52.010;5.420;2022-12-19T01:41:23;101729.34;;;2.27;100.00
72110;BME280;59983;52.010;5.420;2022-12-19T01:43:58;101723.50;;;2.30;100.00
72110;BME280;59983;52.010;5.420;2022-12-19T01:46:31;101721.34;;;2.32;100.00
72110;BME280;59983;52.010;5.420;2022-12-19T01:49:00;101730.69;;;2.35;100.00
72110;BME280;59983;52.010;5.420;2022-12-19T01:51:34;101724.00;;;2.37;100.00
72110;BME280;59983;52.010;5.420;2022-12-19T01:54:06;101715.16;;;2.37;100.00
72110;BME280;59983;52.010;5.420;2022-12-19T01:56:38;101714.91;;;2.38;100.00
72110;BME280;59983;52.010;5.420;2022-12-19T01:59:09;101715.19;;;2.42;100.00
72110;BME280;59983;52.010;5.420;2022-12-19T02:01:38;101695.38;;;2.43;100.00
72110;BME280;59983;52.010;5.420;2022-12-19T02:04:17;101692.13;;;2.46;100.00
72110;BME280;59983;52.010;5.420;2022-12-19T02:06:46;101697.22;;;2.52;100.00
72110;BME280;59983;52.010;5.420;2022-12-19T02:09:13;101694.81;;;2.56;100.00
72110;BME280;59983;52.010;5.420;2022-12-19T02:11:40;101692.94;;;2.62;100.00
72110;BME280;59983;52.010;5.420;2022-12-19T02:14:07;101691.84;;;2.63;100.00
72110;BME280;59983;52.010;5.420;2022-12-19T02:33:53;101658.34;;;2.80;100.00
72110;BME280;59983;52.010;5.420;2022-12-19T02:39:08;101646.28;;;2.83;100.00
72110;BME280;59983;52.010;5.420;2022-12-19T02:41:56;101653.50;;;2.88;100.00
72110;BME280;59983;52.010;5.420;2022-12-19T02:44:41;101650.53;;;2.89;100.00
72110;BME280;59983;52.010;5.420;2022-12-19T02:47:08;101645.44;;;2.93;100.00
72110;BME280;59983;52.010;5.420;2022-12-19T02:49:36;101625.09;;;2.92;100.00
72110;BME280;59983;52.010;5.420;2022-12-19T02:54:47;101619.41;;;2.98;100.00
72110;BME280;59983;52.010;5.420;2022-12-19T03:02:45;101611.38;;;3.03;100.00
72110;BME280;59983;52.010;5.420;2022-12-19T03:05:34;101613.25;;;3.03;100.00
72110;BME280;59983;52.010;5.420;2022-12-19T03:08:11;101605.22;;;3.03;100.00
72110;BME280;59983;52.010;5.420;2022-12-19T03:10:48;101604.94;;;3.04;100.00
72110;BME280;59983;52.010;5.420;2022-12-19T03:15:53;101605.97;;;3.08;100.00
72110;BME280;59983;52.010;5.420;2022-12-19T03:18:20;101606.53;;;3.10;100.00
72110;BME280;59983;52.010;5.420;2022-12-19T03:21:08;101610.53;;;3.13;100.00
72110;BME280;59983;52.010;5.420;2022-12-19T03:23:37;101595.75;;;3.16;100.00
72110;BME280;59983;52.010;5.420;2022-12-19T03:26:14;101597.34;;;3.17;100.00
72110;BME280;59983;52.010;5.420;2022-12-19T03:29:00;101603.78;;;3.21;100.00
72110;BME280;59983;52.010;5.420;2022-12-19T03:31:30;101599.22;;;3.21;100.00
72110;BME280;59983;52.010;5.420;2022-12-19T03:34:02;101595.47;;;3.22;100.00
72110;BME280;59983;52.010;5.420;2022-12-19T03:36:34;101588.72;;;3.25;100.00
72110;BME280;59983;52.010;5.420;2022-12-19T03:39:04;101576.13;;;3.30;100.00
72110;BME280;59983;52.010;5.420;2022-12-19T03:41:34;101573.16;;;3.32;100.00
72110;BME280;59983;52.010;5.420;2022-12-19T03:44:21;101576.63;;;3.32;100.00
72110;BME280;59983;52.010;5.420;2022-12-19T03:46:55;101571.78;;;3.34;100.00
72110;BME280;59983;52.010;5.420;2022-12-19T03:49:24;101574.44;;;3.39;100.00
72110;BME280;59983;52.010;5.420;2022-12-19T03:51:54;101570.97;;;3.39;100.00
72110;BME280;59983;52.010;5.420;2022-12-19T03:54:28;101586.19;;;3.44;100.00
72110;BME280;59983;52.010;5.420;2022-12-19T03:57:06;101567.44;;;3.44;100.00
72110;BME280;59983;52.010;5.420;2022-12-19T04:02:13;101555.88;;;3.48;100.00
72110;BME280;59983;52.010;5.420;2022-12-19T04:04:43;101557.47;;;3.49;100.00
72110;BME280;59983;52.010;5.420;2022-12-19T04:07:12;101561.25;;;3.48;100.00
72110;BME280;59983;52.010;5.420;2022-12-19T04:09:41;101562.03;;;3.54;100.00
72110;BME280;59983;52.010;5.420;2022-12-19T04:12:13;101558.78;;;3.57;100.00
72110;BME280;59983;52.010;5.420;2022-12-19T04:14:41;101566.25;;;3.60;100.00
72110;BME280;59983;52.010;5.420;2022-12-19T04:17:34;101557.13;;;3.61;100.00
72110;BME280;59983;52.010;5.420;2022-12-19T04:20:06;101545.06;;;3.63;100.00
72110;BME280;59983;52.010;5.420;2022-12-19T04:22:57;101547.97;;;3.62;100.00
72110;BME280;59983;52.010;5.420;2022-12-19T04:25:28;101546.66;;;3.64;100.00
72110;BME280;59983;52.010;5.420;2022-12-19T04:28:01;101547.97;;;3.67;100.00
72110;BME280;59983;52.010;5.420;2022-12-19T04:30:30;101564.56;;;3.69;100.00
72110;BME280;59983;52.010;5.420;2022-12-19T04:33:02;101552.50;;;3.72;100.00
72110;BME280;59983;52.010;5.420;2022-12-19T04:35:28;101540.91;;;3.76;100.00
72110;BME280;59983;52.010;5.420;2022-12-19T04:37:55;101558.59;;;3.77;100.00
72110;BME280;59983;52.010;5.420;2022-12-19T04:40:21;101543.31;;;3.78;100.00
72110;BME280;59983;52.010;5.420;2022-12-19T04:42:48;101559.38;;;3.83;100.00
72110;BME280;59983;52.010;5.420;2022-12-19T04:45:14;101554.00;;;3.83;100.00
72110;BME280;59983;52.010;5.420;2022-12-19T04:47:42;101549.94;;;3.85;100.00
72110;BME280;59983;52.010;5.420;2022-12-19T04:50:09;101549.66;;;3.87;100.00
72110;BME280;59983;52.010;5.420;2022-12-19T04:52:35;101534.63;;;3.91;100.00
72110;BME280;59983;52.010;5.420;2022-12-19T04:55:02;101534.03;;;3.94;100.00
72110;BME280;59983;52.010;5.420;2022-12-19T04:57:30;101536.72;;;3.94;100.00
72110;BME280;59983;52.010;5.420;2022-12-19T04:59:57;101531.56;;;3.97;100.00
72110;BME280;59983;52.010;5.420;2022-12-19T05:02:24;101528.06;;;4.02;100.00
72110;BME280;59983;52.010;5.420;2022-12-19T05:04:50;101523.19;;;4.04;100.00
72110;BME280;59983;52.010;5.420;2022-12-19T05:07:18;101526.66;;;4.10;100.00
72110;BME280;59983;52.010;5.420;2022-12-19T05:09:45;101526.88;;;4.13;100.00
72110;BME280;59983;52.010;5.420;2022-12-19T05:12:11;101530.59;;;4.17;100.00
72110;BME280;59983;52.010;5.420;2022-12-19T05:14:38;101523.84;;;4.20;100.00
72110;BME280;59983;52.010;5.420;2022-12-19T05:17:04;101525.69;;;4.24;100.00
72110;BME280;59983;52.010;5.420;2022-12-19T05:19:31;101519.16;;;4.31;100.00
72110;BME280;59983;52.010;5.420;2022-12-19T05:21:57;101519.13;;;4.36;100.00
72110;BME280;59983;52.010;5.420;2022-12-19T05:24:24;101503.22;;;4.39;100.00
72110;BME280;59983;52.010;5.420;2022-12-19T05:26:50;101510.72;;;4.42;100.00
72110;BME280;59983;52.010;5.420;2022-12-19T05:29:17;101503.16;;;4.44;100.00
72110;BME280;59983;52.010;5.420;2022-12-19T05:31:43;101500.69;;;4.48;100.00
72110;BME280;59983;52.010;5.420;2022-12-19T05:34:10;101506.03;;;4.53;100.00
72110;BME280;59983;52.010;5.420;2022-12-19T05:36:38;101506.47;;;4.60;100.00
72110;BME280;59983;52.010;5.420;2022-12-19T05:39:04;101504.00;;;4.64;100.00
72110;BME280;59983;52.010;5.420;2022-12-19T05:41:31;101508.53;;;4.68;100.00
72110;BME280;59983;52.010;5.420;2022-12-19T05:43:57;101504.38;;;4.76;100.00
72110;BME280;59983;52.010;5.420;2022-12-19T05:46:24;101503.22;;;4.82;100.00
72110;BME280;59983;52.010;5.420;2022-12-19T05:48:50;101495.59;;;4.89;100.00
72110;BME280;59983;52.010;5.420;2022-12-19T05:51:17;101494.66;;;4.99;100.00
72110;BME280;59983;52.010;5.420;2022-12-19T05:53:44;101501.34;;;5.01;100.00
72110;BME280;59983;52.010;5.420;2022-12-19T05:56:16;101502.56;;;5.09;100.00
72110;BME280;59983;52.010;5.420;2022-12-19T05:58:43;101504.66;;;5.12;100.00
72110;BME280;59983;52.010;5.420;2022-12-19T06:01:25;101498.38;;;5.22;100.00
72110;BME280;59983;52.010;5.420;2022-12-19T06:03:53;101497.16;;;5.28;100.00
72110;BME280;59983;52.010;5.420;2022-12-19T06:06:23;101504.69;;;5.31;100.00
72110;BME280;59983;52.010;5.420;2022-12-19T06:08:54;101508.88;;;5.37;100.00
72110;BME280;59983;52.010;5.420;2022-12-19T06:11:22;101511.97;;;5.44;100.00
72110;BME280;59983;52.010;5.420;2022-12-19T06:13:48;101515.41;;;5.50;100.00
72110;BME280;59983;52.010;5.420;2022-12-19T06:16:17;101514.22;;;5.56;100.00
72110;BME280;59983;52.010;5.420;2022-12-19T06:18:44;101512.84;;;5.58;100.00
72110;BME280;59983;52.010;5.420;2022-12-19T06:21:16;101503.88;;;5.63;100.00
72110;BME280;59983;52.010;5.420;2022-12-19T06:23:43;101508.38;;;5.67;100.00
72110;BME280;59983;52.010;5.420;2022-12-19T06:26:12;101495.41;;;5.69;100.00
72110;BME280;59983;52.010;5.420;2022-12-19T06:28:44;101489.97;;;5.75;100.00
72110;BME280;59983;52.010;5.420;2022-12-19T06:31:12;101494.16;;;5.81;100.00
72110;BME280;59983;52.010;5.420;2022-12-19T06:33:38;101485.75;;;5.82;100.00
72110;BME280;59983;52.010;5.420;2022-12-19T06:36:22;101495.47;;;5.83;100.00
72110;BME280;59983;52.010;5.420;2022-12-19T06:38:50;101501.34;;;5.85;100.00
72110;BME280;59983;52.010;5.420;2022-12-19T06:41:18;101491.28;;;5.91;100.00
72110;BME280;59983;52.010;5.420;2022-12-19T06:44:05;101492.91;;;5.92;100.00
72110;BME280;59983;52.010;5.420;2022-12-19T06:46:33;101504.97;;;5.94;100.00
72110;BME280;59983;52.010;5.420;2022-12-19T06:49:00;101504.59;;;6.01;100.00
72110;BME280;59983;52.010;5.420;2022-12-19T06:51:27;101512.06;;;6.04;100.00
72110;BME280;59983;52.010;5.420;2022-12-19T06:53:53;101511.16;;;6.09;100.00
72110;BME280;59983;52.010;5.420;2022-12-19T06:56:21;101509.00;;;6.11;100.00
72110;BME280;59983;52.010;5.420;2022-12-19T06:58:48;101503.00;;;6.14;100.00
72110;BME280;59983;52.010;5.420;2022-12-19T07:01:20;101504.28;;;6.16;100.00
72110;BME280;59983;52.010;5.420;2022-12-19T07:03:50;101498.59;;;6.18;100.00
72110;BME280;59983;52.010;5.420;2022-12-19T07:06:16;101505.00;;;6.22;100.00
72110;BME280;59983;52.010;5.420;2022-12-19T07:08:43;101504.69;;;6.23;100.00
72110;BME280;59983;52.010;5.420;2022-12-19T07:11:09;101497.41;;;6.24;100.00
72110;BME280;59983;52.010;5.420;2022-12-19T07:13:36;101504.09;;;6.27;100.00
72110;BME280;59983;52.010;5.420;2022-12-19T07:16:04;101503.81;;;6.28;100.00
72110;BME280;59983;52.010;5.420;2022-12-19T07:18:36;101516.06;;;6.34;100.00
72110;BME280;59983;52.010;5.420;2022-12-19T07:21:03;101516.06;;;6.34;100.00
72110;BME280;59983;52.010;5.420;2022-12-19T07:23:33;101518.47;;;6.36;100.00
72110;BME280;59983;52.010;5.420;2022-12-19T07:26:00;101525.47;;;6.37;100.00
72110;BME280;59983;52.010;5.420;2022-12-19T07:28:27;101523.44;;;6.42;100.00
72110;BME280;59983;52.010;5.420;2022-12-19T07:30:53;101515.69;;;6.41;100.00
72110;BME280;59983;52.010;5.420;2022-12-19T07:33:20;101519.38;;;6.45;100.00
72110;BME280;59983;52.010;5.420;2022-12-19T07:35:47;101515.59;;;6.46;100.00
72110;BME280;59983;52.010;5.420;2022-12-19T07:38:14;101523.38;;;6.47;100.00
72110;BME280;59983;52.010;5.420;2022-12-19T07:40:40;101526.06;;;6.47;100.00
72110;BME280;59983;52.010;5.420;2022-12-19T07:43:07;101533.53;;;6.50;100.00
72110;BME280;59983;52.010;5.420;2022-12-19T07:45:36;101539.41;;;6.52;100.00
72110;BME280;59983;52.010;5.420;2022-12-19T07:48:04;101538.03;;;6.55;100.00
72110;BME280;59983;52.010;5.420;2022-12-19T07:50:32;101535.84;;;6.57;100.00
72110;BME280;59983;52.010;5.420;2022-12-19T07:52:58;101517.94;;;6.61;100.00
72110;BME280;59983;52.010;5.420;2022-12-19T07:55:25;101528.72;;;6.61;100.00
72110;BME280;59983;52.010;5.420;2022-12-19T07:57:52;101531.16;;;6.63;100.00
72110;BME280;59983;52.010;5.420;2022-12-19T08:00:21;101534.66;;;6.63;100.00
72110;BME280;59983;52.010;5.420;2022-12-19T08:02:47;101538.63;;;6.66;100.00
72110;BME280;59983;52.010;5.420;2022-12-19T08:05:14;101542.00;;;6.71;100.00
72110;BME280;59983;52.010;5.420;2022-12-19T08:07:41;101545.78;;;6.70;100.00
72110;BME280;59983;52.010;5.420;2022-12-19T08:10:08;101545.22;;;6.73;100.00
72110;BME280;59983;52.010;5.420;2022-12-19T08:12:36;101549.19;;;6.76;100.00
72110;BME280;59983;52.010;5.420;2022-12-19T08:15:04;101555.88;;;6.78;100.00
72110;BME280;59983;52.010;5.420;2022-12-19T08:17:32;101548.88;;;6.77;100.00
72110;BME280;59983;52.010;5.420;2022-12-19T08:19:59;101552.38;;;6.78;100.00
72110;BME280;59983;52.010;5.420;2022-12-19T08:22:28;101559.38;;;6.79;100.00
72110;BME280;59983;52.010;5.420;2022-12-19T08:24:54;101543.97;;;6.79;100.00
72110;BME280;59983;52.010;5.420;2022-12-19T08:27:21;101549.09;;;6.81;100.00
72110;BME280;59983;52.010;5.420;2022-12-19T08:29:48;101548.78;;;6.82;100.00
72110;BME280;59983;52.010;5.420;2022-12-19T08:32:15;101549.28;;;6.85;100.00
72110;BME280;59983;52.010;5.420;2022-12-19T08:34:46;101555.16;;;6.87;100.00
72110;BME280;59983;52.010;5.420;2022-12-19T08:37:13;101556.47;;;6.89;100.00
72110;BME280;59983;52.010;5.420;2022-12-19T08:39:39;101555.38;;;6.90;100.00
72110;BME280;59983;52.010;5.420;2022-12-19T08:42:06;101567.63;;;6.96;100.00
72110;BME280;59983;52.010;5.420;2022-12-19T08:44:32;101561.13;;;6.97;100.00
72110;BME280;59983;52.010;5.420;2022-12-19T08:46:59;101561.13;;;6.97;100.00
72110;BME280;59983;52.010;5.420;2022-12-19T08:49:25;101560.34;;;6.97;100.00
72110;BME280;59983;52.010;5.420;2022-12-19T08:51:52;101559.25;;;6.98;100.00
72110;BME280;59983;52.010;5.420;2022-12-19T08:54:18;101552.78;;;6.99;100.00
72110;BME280;59983;52.010;5.420;2022-12-19T08:56:45;101563.56;;;6.99;100.00
72110;BME280;59983;52.010;5.420;2022-12-19T08:59:13;101560.56;;;7.00;100.00
72110;BME280;59983;52.010;5.420;2022-12-19T09:01:49;101564.84;;;7.01;100.00
72110;BME280;59983;52.010;5.420;2022-12-19T09:04:16;101564.53;;;7.03;100.00
72110;BME280;59983;52.010;5.420;2022-12-19T09:07:02;101563.44;;;7.04;100.00
72110;BME280;59983;52.010;5.420;2022-12-19T09:09:29;101566.94;;;7.04;100.00
72110;BME280;59983;52.010;5.420;2022-12-19T09:11:55;101568.34;;;7.02;100.00
72110;BME280;59983;52.010;5.420;2022-12-19T09:14:22;101568.53;;;7.05;100.00
72110;BME280;59983;52.010;5.420;2022-12-19T09:16:48;101557.44;;;7.07;100.00
72110;BME280;59983;52.010;5.420;2022-12-19T09:19:15;101558.72;;;7.09;100.00
72110;BME280;59983;52.010;5.420;2022-12-19T09:21:42;101569.84;;;7.08;100.00
72110;BME280;59983;52.010;5.420;2022-12-19T09:24:09;101571.91;;;7.11;100.00
72110;BME280;59983;52.010;5.420;2022-12-19T09:26:36;101570.31;;;7.10;100.00
72110;BME280;59983;52.010;5.420;2022-12-19T09:29:07;101567.00;;;7.13;100.00
72110;BME280;59983;52.010;5.420;2022-12-19T09:31:46;101572.09;;;7.15;100.00
72110;BME280;59983;52.010;5.420;2022-12-19T09:34:15;101566.91;;;7.18;100.00
72110;BME280;59983;52.010;5.420;2022-12-19T09:36:42;101571.38;;;7.23;100.00
72110;BME280;59983;52.010;5.420;2022-12-19T09:39:08;101559.78;;;7.22;100.00
72110;BME280;59983;52.010;5.420;2022-12-19T09:47:09;101578.56;;;7.27;100.00
72110;BME280;59983;52.010;5.420;2022-12-19T09:49:41;101577.16;;;7.30;100.00
72110;BME280;59983;52.010;5.420;2022-12-19T09:52:20;101576.84;;;7.31;100.00
72110;BME280;59983;52.010;5.420;2022-12-19T09:54:59;101585.25;;;7.30;100.00
72110;BME280;59983;52.010;5.420;2022-12-19T09:57:49;101577.47;;;7.28;100.00
72110;BME280;59983;52.010;5.420;2022-12-19T10:00:19;101570.66;;;7.31;100.00
72110;BME280;59983;52.010;5.420;2022-12-19T10:03:38;101565.47;;;7.34;100.00
72110;BME280;59983;52.010;5.420;2022-12-19T10:09:00;101578.81;;;7.39;100.00
72110;BME280;59983;52.010;5.420;2022-12-19T10:15:24;101578.72;;;7.45;100.00
72110;BME280;59983;52.010;5.420;2022-12-19T10:20:59;101563.69;;;7.52;100.00
72110;BME280;59983;52.010;5.420;2022-12-19T10:26:56;101569.16;;;7.61;100.00
72110;BME280;59983;52.010;5.420;2022-12-19T10:35:51;101567.00;;;7.72;100.00
72110;BME280;59983;52.010;5.420;2022-12-19T10:38:37;101562.09;;;7.74;100.00
72110;BME280;59983;52.010;5.420;2022-12-19T10:41:23;101571.31;;;7.73;100.00
72110;BME280;59983;52.010;5.420;2022-12-19T10:51:39;101579.47;;;7.81;100.00
72110;BME280;59983;52.010;5.420;2022-12-19T10:54:06;101578.84;;;7.84;100.00
72110;BME280;59983;52.010;5.420;2022-12-19T10:56:32;101571.25;;;7.86;100.00
72110;BME280;59983;52.010;5.420;2022-12-19T10:59:14;101575.34;;;7.84;100.00
72110;BME280;59983;52.010;5.420;2022-12-19T11:01:41;101582.34;;;7.85;100.00
72110;BME280;59983;52.010;5.420;2022-12-19T11:04:30;101571.25;;;7.86;100.00
72110;BME280;59983;52.010;5.420;2022-12-19T11:09:36;101576.34;;;7.88;100.00
72110;BME280;59983;52.010;5.420;2022-12-19T11:15:14;101553.63;;;7.89;100.00
72110;BME280;59983;52.010;5.420;2022-12-19T11:18:08;101547.91;;;7.90;100.00
72110;BME280;59983;52.010;5.420;2022-12-19T11:21:02;101547.91;;;7.90;100.00
72110;BME280;59983;52.010;5.420;2022-12-19T11:26:42;101535.88;;;7.97;100.00
72110;BME280;59983;52.010;5.420;2022-12-19T11:32:37;101550.53;;;8.04;100.00
72110;BME280;59983;52.010;5.420;2022-12-19T11:35:24;101536.72;;;8.06;100.00
72110;BME280;59983;52.010;5.420;2022-12-19T11:38:03;101533.84;;;8.11;100.00
72110;BME280;59983;52.010;5.420;2022-12-19T11:40:35;101541.38;;;8.14;100.00
72110;BME280;59983;52.010;5.420;2022-12-19T11:55:05;101539.31;;;8.19;100.00
72110;BME280;59983;52.010;5.420;2022-12-19T11:57:24;101545.81;;;8.18;100.00
72110;BME280;59983;52.010;5.420;2022-12-19T11:59:52;101530.59;;;8.22;100.00
72110;BME280;59983;52.010;5.420;2022-12-19T12:02:46;101544.09;;;8.22;100.00
72110;BME280;59983;52.010;5.420;2022-12-19T12:05:41;101542.69;;;8.25;100.00
72110;BME280;59983;52.010;5.420;2022-12-19T12:27:08;101504.94;;;8.51;100.00
72110;BME280;59983;52.010;5.420;2022-12-19T12:30:10;101507.66;;;8.51;100.00
72110;BME280;59983;52.010;5.420;2022-12-19T12:33:16;101504.31;;;8.54;100.00
72110;BME280;59983;52.010;5.420;2022-12-19T12:36:15;101507.03;;;8.54;100.00
72110;BME280;59983;52.010;5.420;2022-12-19T12:44:40;101479.69;;;8.64;100.00
72110;BME280;59983;52.010;5.420;2022-12-19T12:47:27;101470.63;;;8.69;100.00
72110;BME280;59983;52.010;5.420;2022-12-19T12:50:13;101470.00;;;8.72;100.00
72110;BME280;59983;52.010;5.420;2022-12-19T12:52:45;101464.09;;;8.70;100.00
72110;BME280;59983;52.010;5.420;2022-12-19T12:55:18;101459.81;;;8.69;100.00
72110;BME280;59983;52.010;5.420;2022-12-19T12:57:48;101453.75;;;8.72;100.00
72110;BME280;59983;52.010;5.420;2022-12-19T13:02:49;101446.63;;;8.76;100.00
72110;BME280;59983;52.010;5.420;2022-12-19T13:17:58;101442.81;;;8.86;100.00
72110;BME280;59983;52.010;5.420;2022-12-19T13:23:01;101446.13;;;8.83;100.00
72110;BME280;59983;52.010;5.420;2022-12-19T13:30:29;101447.75;;;8.84;100.00
72110;BME280;59983;52.010;5.420;2022-12-19T13:38:19;101418.47;;;8.86;100.00
72110;BME280;59983;52.010;5.420;2022-12-19T13:41:24;101419.72;;;8.88;100.00
72110;BME280;59983;52.010;5.420;2022-12-19T13:44:09;101416.69;;;8.90;100.00
72110;BME280;59983;52.010;5.420;2022-12-19T13:49:23;101403.16;;;8.90;100.00
72110;BME280;59983;52.010;5.420;2022-12-19T13:51:58;101389.50;;;8.95;100.00
72110;BME280;59983;52.010;5.420;2022-12-19T13:54:30;101384.53;;;8.97;100.00
72110;BME280;59983;52.010;5.420;2022-12-19T13:57:00;101382.16;;;8.95;100.00
72110;BME280;59983;52.010;5.420;2022-12-19T13:59:36;101383.09;;;8.99;100.00
72110;BME280;59983;52.010;5.420;2022-12-19T14:02:21;101377.88;;;8.94;100.00
72110;BME280;59983;52.010;5.420;2022-12-19T14:04:52;101392.34;;;8.98;100.00
72110;BME280;59983;52.010;5.420;2022-12-19T14:07:27;101396.94;;;8.98;100.00
72110;BME280;59983;52.010;5.420;2022-12-19T14:10:04;101394.56;;;8.96;100.00
72110;BME280;59983;52.010;5.420;2022-12-19T14:12:51;101396.94;;;8.98;100.00
72110;BME280;59983;52.010;5.420;2022-12-19T14:15:56;101395.38;;;8.97;100.00
72110;BME280;59983;52.010;5.420;2022-12-19T14:21:24;101394.09;;;8.94;100.00
72110;BME280;59983;52.010;5.420;2022-12-19T14:24:18;101397.59;;;8.95;100.00
72110;BME280;59983;52.010;5.420;2022-12-19T14:26:49;101389.50;;;8.95;100.00
72110;BME280;59983;52.010;5.420;2022-12-19T14:29:45;101385.19;;;8.94;100.00
72110;BME280;59983;52.010;5.420;2022-12-19T14:32:33;101377.53;;;8.96;100.00
72110;BME280;59983;52.010;5.420;2022-12-19T14:35:27;101374.97;;;8.99;100.00
72110;BME280;59983;52.010;5.420;2022-12-19T14:38:22;101369.56;;;8.99;100.00
72110;BME280;59983;52.010;5.420;2022-12-19T14:41:18;101375.28;;;9.06;99.90
72110;BME280;59983;52.010;5.420;2022-12-19T14:44:04;101363.69;;;9.06;99.22
72110;BME280;59983;52.010;5.420;2022-12-19T14:47:09;101365.59;;;9.05;99.40
72110;BME280;59983;52.010;5.420;2022-12-19T14:49:56;101371.94;;;9.09;98.58
72110;BME280;59983;52.010;5.420;2022-12-19T14:52:43;101374.97;;;9.08;98.52
72110;BME280;59983;52.010;5.420;2022-12-19T14:55:35;101379.59;;;9.07;98.44
72110;BME280;59983;52.010;5.420;2022-12-19T14:58:28;101381.97;;;9.09;98.31
72110;BME280;59983;52.010;5.420;2022-12-19T15:03:53;101397.41;;;9.08;98.01
72110;BME280;59983;52.010;5.420;2022-12-19T15:06:42;101394.41;;;9.10;96.61
72110;BME280;59983;52.010;5.420;2022-12-19T15:09:31;101395.19;;;9.11;96.92
72110;BME280;59983;52.010;5.420;2022-12-19T15:12:25;101387.38;;;9.09;96.87
72110;BME280;59983;52.010;5.420;2022-12-19T15:15:57;101409.53;;;9.11;96.52
72110;BME280;59983;52.010;5.420;2022-12-19T15:21:05;101411.91;;;9.13;96.03
72110;BME280;59983;52.010;5.420;2022-12-19T15:23:33;101413.34;;;9.10;95.48
72110;BME280;59983;52.010;5.420;2022-12-19T15:26:03;101423.34;;;9.09;95.57
72110;BME280;59983;52.010;5.420;2022-12-19T15:28:49;101420.66;;;9.09;94.35
72110;BME280;59983;52.010;5.420;2022-12-19T15:36:56;101414.63;;;9.13;94.24
72110;BME280;59983;52.010;5.420;2022-12-19T15:39:23;101410.47;;;9.15;94.02
72110;BME280;59983;52.010;5.420;2022-12-19T15:41:52;101394.56;;;9.14;94.25
72110;BME280;59983;52.010;5.420;2022-12-19T15:44:32;101400.09;;;9.17;94.57
72110;BME280;59983;52.010;5.420;2022-12-19T15:47:00;101394.69;;;9.17;94.16
72110;BME280;59983;52.010;5.420;2022-12-19T15:49:27;101398.97;;;9.18;93.83
72110;BME280;59983;52.010;5.420;2022-12-19T15:51:54;101406.00;;;9.19;93.72
72110;BME280;59983;52.010;5.420;2022-12-19T15:54:20;101408.41;;;9.21;93.52
72110;BME280;59983;52.010;5.420;2022-12-19T15:57:34;101413.00;;;9.20;93.25
72110;BME280;59983;52.010;5.420;2022-12-19T16:00:07;101406.81;;;9.20;93.58